PWSweather.com
Personal Weather Stations
Station Observations
METEOTORRE
Torrevecchia TeatinaIT

Torrevecchia TeatinaIT

Lat: 42.394, Lon: 14.215

Elevation: 688

Station Type: Davis VP2

Latest ConditionsUpdated 9:55:05 PM GMT+01:01 Sunday, Jan 19, 2020
Currently Today's Max Today's Min Today's Average
Temperature 43.4°F6.3°C 47.5°F8.6°C 43.1°F6.2°C 44.5°F6.9°C
Dew Point 40.6°F4.8°C 44.6°F7.0°C 40.3°F4.6°C 42.3°F5.7°C
Winds 7.0 mph W11.3 kmh W 10.0 mph -16.1 kmh - - 3.1 mph 5.0 kmh
Wind Gusts 8.0 mph12.9 kmh 11.0 mph17.7 kmh - -
Humidity 90% 96% 86% 92%
Pressure 30.44 in1030.8 mb 30.44 in1030.8 mb 30.15 in1021.0 mb -
Precipitation - 0.06 in1.5 mm - -
Hour Temp Dew Point Humidity Winds Wind Gusts Pressure Precip Precip Rate Daily Precip Total
09:55 PM 43.4°F6.3°C 40.6°F4.8°C 90% 7.0 mph W11.3 kmh W 8.0 mph12.9 kmh 30.44 in1030.8 mb 0.00 in0.0 mm 0.00 in0.0 mm 0.06 in1.5 mm
09:50 PM 43.3°F6.3°C 40.5°F4.7°C 90% 5.0 mph W8.0 kmh W 8.0 mph12.9 kmh 30.44 in1030.8 mb 0.00 in0.0 mm 0.00 in0.0 mm 0.06 in1.5 mm
09:45 PM 43.2°F6.2°C 40.4°F4.7°C 90% 5.0 mph WNW8.0 kmh WNW 7.0 mph11.3 kmh 30.44 in1030.8 mb 0.00 in0.0 mm 0.00 in0.0 mm 0.06 in1.5 mm
09:40 PM 43.2°F6.2°C 40.4°F4.7°C 90% 4.0 mph W6.4 kmh W 8.0 mph12.9 kmh 30.44 in1030.8 mb 0.00 in0.0 mm 0.00 in0.0 mm 0.06 in1.5 mm
09:35 PM 43.2°F6.2°C 40.4°F4.7°C 90% 4.0 mph WNW6.4 kmh WNW 7.0 mph11.3 kmh 30.44 in1030.8 mb 0.00 in0.0 mm 0.00 in0.0 mm 0.06 in1.5 mm
09:30 PM 43.1°F6.2°C 40.3°F4.6°C 90% 5.0 mph WNW8.0 kmh WNW 6.0 mph9.7 kmh 30.44 in1030.8 mb 0.00 in0.0 mm 0.00 in0.0 mm 0.06 in1.5 mm
09:25 PM 43.2°F6.2°C 40.4°F4.7°C 90% 4.0 mph WNW6.4 kmh WNW 8.0 mph12.9 kmh 30.44 in1030.8 mb 0.00 in0.0 mm 0.00 in0.0 mm 0.06 in1.5 mm
09:20 PM 43.2°F6.2°C 40.4°F4.7°C 90% 6.0 mph W9.7 kmh W 8.0 mph12.9 kmh 30.44 in1030.8 mb 0.00 in0.0 mm 0.00 in0.0 mm 0.06 in1.5 mm
09:15 PM 43.2°F6.2°C 40.4°F4.7°C 90% 5.0 mph W8.0 kmh W 7.0 mph11.3 kmh 30.44 in1030.8 mb 0.00 in0.0 mm 0.00 in0.0 mm 0.06 in1.5 mm
09:10 PM 43.2°F6.2°C 40.4°F4.7°C 90% 6.0 mph W9.7 kmh W 6.0 mph9.7 kmh 30.44 in1030.8 mb 0.00 in0.0 mm 0.00 in0.0 mm 0.06 in1.5 mm
09:05 PM 43.2°F6.2°C 40.4°F4.7°C 90% 3.0 mph WNW4.8 kmh WNW 7.0 mph11.3 kmh 30.44 in1030.8 mb 0.00 in0.0 mm 0.00 in0.0 mm 0.06 in1.5 mm
09:00 PM 43.3°F6.3°C 40.5°F4.7°C 90% 4.0 mph W6.4 kmh W 7.0 mph11.3 kmh 30.44 in1030.8 mb 0.00 in0.0 mm 0.00 in0.0 mm 0.06 in1.5 mm
08:55 PM 43.4°F6.3°C 40.3°F4.6°C 89% 3.0 mph W4.8 kmh W 8.0 mph12.9 kmh 30.44 in1030.8 mb 0.00 in0.0 mm 0.00 in0.0 mm 0.06 in1.5 mm
08:50 PM 43.5°F6.4°C 40.4°F4.7°C 89% 4.0 mph NW6.4 kmh NW 8.0 mph12.9 kmh 30.43 in1030.5 mb 0.00 in0.0 mm 0.00 in0.0 mm 0.06 in1.5 mm
08:45 PM 43.7°F6.5°C 40.3°F4.6°C 88% 5.0 mph WNW8.0 kmh WNW 8.0 mph12.9 kmh 30.43 in1030.5 mb 0.00 in0.0 mm 0.00 in0.0 mm 0.06 in1.5 mm
08:40 PM 43.7°F6.5°C 40.3°F4.6°C 88% 8.0 mph W12.9 kmh W 9.0 mph14.5 kmh 30.43 in1030.5 mb 0.00 in0.0 mm 0.00 in0.0 mm 0.06 in1.5 mm
08:35 PM 43.7°F6.5°C 40.3°F4.6°C 88% 5.0 mph WNW8.0 kmh WNW 9.0 mph14.5 kmh 30.43 in1030.5 mb 0.00 in0.0 mm 0.00 in0.0 mm 0.06 in1.5 mm
08:30 PM 43.6°F6.4°C 40.5°F4.7°C 89% 2.0 mph NW3.2 kmh NW 9.0 mph14.5 kmh 30.43 in1030.5 mb 0.00 in0.0 mm 0.00 in0.0 mm 0.06 in1.5 mm
08:25 PM 43.6°F6.4°C 40.5°F4.7°C 89% 3.0 mph WNW4.8 kmh WNW 7.0 mph11.3 kmh 30.43 in1030.5 mb 0.00 in0.0 mm 0.00 in0.0 mm 0.06 in1.5 mm
08:20 PM 43.6°F6.4°C 40.5°F4.7°C 89% 5.0 mph W8.0 kmh W 7.0 mph11.3 kmh 30.43 in1030.5 mb 0.00 in0.0 mm 0.00 in0.0 mm 0.06 in1.5 mm
08:15 PM 43.6°F6.4°C 40.5°F4.7°C 89% 6.0 mph 9.7 kmh 5.0 mph8.0 kmh 30.42 in1030.1 mb 0.00 in0.0 mm 0.00 in0.0 mm 0.06 in1.5 mm
08:10 PM 43.6°F6.4°C 40.5°F4.7°C 89% 1.0 mph 1.6 kmh 7.0 mph11.3 kmh 30.42 in1030.1 mb 0.00 in0.0 mm 0.00 in0.0 mm 0.06 in1.5 mm
08:05 PM 43.7°F6.5°C 40.6°F4.8°C 89% 2.0 mph WSW3.2 kmh WSW 6.0 mph9.7 kmh 30.42 in1030.1 mb 0.00 in0.0 mm 0.00 in0.0 mm 0.06 in1.5 mm
08:00 PM 43.8°F6.6°C 40.7°F4.8°C 89% 5.0 mph 8.0 kmh 6.0 mph9.7 kmh 30.42 in1030.1 mb 0.00 in0.0 mm 0.00 in0.0 mm 0.06 in1.5 mm
07:55 PM 43.8°F6.6°C 40.7°F4.8°C 89% 1.0 mph WSW1.6 kmh WSW 8.0 mph12.9 kmh 30.42 in1030.1 mb 0.00 in0.0 mm 0.00 in0.0 mm 0.06 in1.5 mm
07:50 PM 43.8°F6.6°C 40.7°F4.8°C 89% 6.0 mph WSW9.7 kmh WSW 9.0 mph14.5 kmh 30.42 in1030.1 mb 0.00 in0.0 mm 0.00 in0.0 mm 0.06 in1.5 mm
07:45 PM 43.6°F6.4°C 40.5°F4.7°C 89% 4.0 mph WSW6.4 kmh WSW 9.0 mph14.5 kmh 30.42 in1030.1 mb 0.00 in0.0 mm 0.00 in0.0 mm 0.06 in1.5 mm
07:40 PM 43.5°F6.4°C 40.7°F4.8°C 90% 6.0 mph W9.7 kmh W 9.0 mph14.5 kmh 30.42 in1030.1 mb 0.00 in0.0 mm 0.00 in0.0 mm 0.06 in1.5 mm
07:35 PM 43.6°F6.4°C 40.8°F4.9°C 90% 4.0 mph WSW6.4 kmh WSW 8.0 mph12.9 kmh 30.42 in1030.1 mb 0.00 in0.0 mm 0.00 in0.0 mm 0.06 in1.5 mm
07:30 PM 43.6°F6.4°C 40.8°F4.9°C 90% 6.0 mph WSW9.7 kmh WSW 7.0 mph11.3 kmh 30.41 in1029.8 mb 0.00 in0.0 mm 0.00 in0.0 mm 0.06 in1.5 mm
07:25 PM 43.6°F6.4°C 40.8°F4.9°C 90% 3.0 mph 4.8 kmh 9.0 mph14.5 kmh 30.41 in1029.8 mb 0.00 in0.0 mm 0.00 in0.0 mm 0.06 in1.5 mm
07:20 PM 43.6°F6.4°C 40.8°F4.9°C 90% 5.0 mph WSW8.0 kmh WSW 9.0 mph14.5 kmh 30.41 in1029.8 mb 0.00 in0.0 mm 0.00 in0.0 mm 0.06 in1.5 mm
07:15 PM 43.7°F6.5°C 40.9°F4.9°C 90% 5.0 mph W8.0 kmh W 8.0 mph12.9 kmh 30.41 in1029.8 mb 0.00 in0.0 mm 0.00 in0.0 mm 0.06 in1.5 mm
07:10 PM 43.8°F6.6°C 41.0°F5.0°C 90% 2.0 mph W3.2 kmh W 11.0 mph17.7 kmh 30.40 in1029.5 mb 0.00 in0.0 mm 0.00 in0.0 mm 0.06 in1.5 mm
07:05 PM 43.9°F6.6°C 41.1°F5.1°C 90% 6.0 mph W9.7 kmh W 8.0 mph12.9 kmh 30.40 in1029.5 mb 0.00 in0.0 mm 0.00 in0.0 mm 0.06 in1.5 mm
07:00 PM 44.1°F6.7°C 41.3°F5.2°C 90% 3.0 mph WNW4.8 kmh WNW 10.0 mph16.1 kmh 30.40 in1029.5 mb 0.00 in0.0 mm 0.00 in0.0 mm 0.06 in1.5 mm
06:55 PM 44.3°F6.8°C 41.2°F5.1°C 89% 6.0 mph W9.7 kmh W 10.0 mph16.1 kmh 30.40 in1029.5 mb 0.00 in0.0 mm 0.00 in0.0 mm 0.06 in1.5 mm
06:50 PM 44.5°F6.9°C 41.4°F5.2°C 89% 2.0 mph 3.2 kmh 10.0 mph16.1 kmh 30.40 in1029.5 mb 0.00 in0.0 mm 0.00 in0.0 mm 0.06 in1.5 mm
06:45 PM 44.6°F7.0°C 41.5°F5.3°C 89% 5.0 mph 8.0 kmh 6.0 mph9.7 kmh 30.40 in1029.5 mb 0.00 in0.0 mm 0.00 in0.0 mm 0.06 in1.5 mm
06:40 PM 44.7°F7.1°C 41.3°F5.2°C 88% 5.0 mph NW8.0 kmh NW 7.0 mph11.3 kmh 30.39 in1029.1 mb 0.00 in0.0 mm 0.00 in0.0 mm 0.06 in1.5 mm
06:35 PM 44.5°F6.9°C 41.4°F5.2°C 89% 3.0 mph NW4.8 kmh NW 5.0 mph8.0 kmh 30.39 in1029.1 mb 0.00 in0.0 mm 0.00 in0.0 mm 0.06 in1.5 mm
06:30 PM 44.4°F6.9°C 41.6°F5.3°C 90% 2.0 mph W3.2 kmh W 5.0 mph8.0 kmh 30.39 in1029.1 mb 0.00 in0.0 mm 0.00 in0.0 mm 0.06 in1.5 mm
06:25 PM 44.3°F6.8°C 41.5°F5.3°C 90% 2.0 mph W3.2 kmh W 6.0 mph9.7 kmh 30.39 in1029.1 mb 0.00 in0.0 mm 0.00 in0.0 mm 0.06 in1.5 mm
06:20 PM 44.1°F6.7°C 41.3°F5.2°C 90% 3.0 mph W4.8 kmh W 9.0 mph14.5 kmh 30.38 in1028.8 mb 0.00 in0.0 mm 0.00 in0.0 mm 0.06 in1.5 mm
06:15 PM 44.2°F6.8°C 41.4°F5.2°C 90% 4.0 mph WSW6.4 kmh WSW 8.0 mph12.9 kmh 30.38 in1028.8 mb 0.00 in0.0 mm 0.00 in0.0 mm 0.06 in1.5 mm
06:10 PM 44.2°F6.8°C 41.4°F5.2°C 90% 7.0 mph WSW11.3 kmh WSW 8.0 mph12.9 kmh 30.38 in1028.8 mb 0.00 in0.0 mm 0.00 in0.0 mm 0.06 in1.5 mm
06:05 PM 44.3°F6.8°C 41.5°F5.3°C 90% 4.0 mph WSW6.4 kmh WSW 9.0 mph14.5 kmh 30.38 in1028.8 mb 0.00 in0.0 mm 0.00 in0.0 mm 0.06 in1.5 mm
06:00 PM 44.2°F6.8°C 41.4°F5.2°C 90% 4.0 mph WSW6.4 kmh WSW 9.0 mph14.5 kmh 30.37 in1028.4 mb 0.00 in0.0 mm 0.00 in0.0 mm 0.06 in1.5 mm
05:55 PM 44.1°F6.7°C 41.0°F5.0°C 89% 6.0 mph WSW9.7 kmh WSW 7.0 mph11.3 kmh 30.37 in1028.4 mb 0.00 in0.0 mm 0.00 in0.0 mm 0.06 in1.5 mm
05:50 PM 44.0°F6.7°C 40.9°F4.9°C 89% 7.0 mph W11.3 kmh W 6.0 mph9.7 kmh 30.37 in1028.4 mb 0.00 in0.0 mm 0.00 in0.0 mm 0.06 in1.5 mm
05:45 PM 44.2°F6.8°C 40.8°F4.9°C 88% 1.0 mph W1.6 kmh W 8.0 mph12.9 kmh 30.36 in1028.1 mb 0.00 in0.0 mm 0.00 in0.0 mm 0.06 in1.5 mm
05:40 PM 44.3°F6.8°C 40.9°F4.9°C 88% 7.0 mph W11.3 kmh W 6.0 mph9.7 kmh 30.36 in1028.1 mb 0.00 in0.0 mm 0.00 in0.0 mm 0.06 in1.5 mm
05:35 PM 44.5°F6.9°C 40.8°F4.9°C 87% 3.0 mph W4.8 kmh W 6.0 mph9.7 kmh 30.36 in1028.1 mb 0.00 in0.0 mm 0.00 in0.0 mm 0.06 in1.5 mm
05:30 PM 44.6°F7.0°C 40.9°F4.9°C 87% 5.0 mph W8.0 kmh W 7.0 mph11.3 kmh 30.36 in1028.1 mb 0.00 in0.0 mm 0.00 in0.0 mm 0.06 in1.5 mm
05:25 PM 44.7°F7.1°C 40.7°F4.8°C 86% 3.0 mph W4.8 kmh W 6.0 mph9.7 kmh 30.36 in1028.1 mb 0.00 in0.0 mm 0.00 in0.0 mm 0.06 in1.5 mm
05:20 PM 44.6°F7.0°C 40.6°F4.8°C 86% 3.0 mph NW4.8 kmh NW 7.0 mph11.3 kmh 30.36 in1028.1 mb 0.00 in0.0 mm 0.00 in0.0 mm 0.06 in1.5 mm
05:15 PM 44.7°F7.1°C 40.7°F4.8°C 86% 5.0 mph WNW8.0 kmh WNW 5.0 mph8.0 kmh 30.35 in1027.8 mb 0.00 in0.0 mm 0.00 in0.0 mm 0.06 in1.5 mm
05:10 PM 44.8°F7.1°C 40.8°F4.9°C 86% 3.0 mph W4.8 kmh W 6.0 mph9.7 kmh 30.35 in1027.8 mb 0.01 in0.3 mm 0.00 in0.0 mm 0.06 in1.5 mm
05:05 PM 44.7°F7.1°C 40.7°F4.8°C 86% 4.0 mph NW6.4 kmh NW 6.0 mph9.7 kmh 30.35 in1027.8 mb 0.02 in0.5 mm 0.00 in0.0 mm 0.06 in1.5 mm
05:00 PM 44.7°F7.1°C 40.7°F4.8°C 86% 4.0 mph NW6.4 kmh NW 8.0 mph12.9 kmh 30.35 in1027.8 mb 0.02 in0.5 mm 0.00 in0.0 mm 0.06 in1.5 mm
04:55 PM 44.6°F7.0°C 40.9°F4.9°C 87% 1.0 mph NW1.6 kmh NW 8.0 mph12.9 kmh 30.34 in1027.4 mb 0.02 in0.5 mm 0.00 in0.0 mm 0.06 in1.5 mm
04:50 PM 44.5°F6.9°C 40.8°F4.9°C 87% 3.0 mph NW4.8 kmh NW 9.0 mph14.5 kmh 30.34 in1027.4 mb 0.02 in0.5 mm 0.00 in0.0 mm 0.06 in1.5 mm
04:45 PM 44.5°F6.9°C 40.8°F4.9°C 87% 4.0 mph NW6.4 kmh NW 10.0 mph16.1 kmh 30.34 in1027.4 mb 0.03 in0.8 mm 0.00 in0.0 mm 0.06 in1.5 mm
04:40 PM 44.4°F6.9°C 40.7°F4.8°C 87% Calm Calm 6.0 mph9.7 kmh 30.34 in1027.4 mb 0.03 in0.8 mm 0.00 in0.0 mm 0.06 in1.5 mm
04:35 PM 44.2°F6.8°C 41.1°F5.1°C 89% 3.0 mph WNW4.8 kmh WNW 7.0 mph11.3 kmh 30.33 in1027.1 mb 0.04 in1.0 mm 0.00 in0.0 mm 0.06 in1.5 mm
04:30 PM 44.0°F6.7°C 40.9°F4.9°C 89% 6.0 mph NW9.7 kmh NW 6.0 mph9.7 kmh 30.33 in1027.1 mb 0.04 in1.0 mm 0.00 in0.0 mm 0.06 in1.5 mm
04:25 PM 43.9°F6.6°C 40.8°F4.9°C 89% 1.0 mph NW1.6 kmh NW 8.0 mph12.9 kmh 30.33 in1027.1 mb 0.04 in1.0 mm 0.00 in0.0 mm 0.06 in1.5 mm
04:20 PM 43.7°F6.5°C 40.9°F4.9°C 90% 3.0 mph NW4.8 kmh NW 6.0 mph9.7 kmh 30.33 in1027.1 mb 0.04 in1.0 mm 0.12 in3.0 mm 0.06 in1.5 mm
04:15 PM 43.8°F6.6°C 41.0°F5.0°C 90% 2.0 mph N3.2 kmh N 7.0 mph11.3 kmh 30.33 in1027.1 mb 0.03 in0.8 mm 0.00 in0.0 mm 0.05 in1.3 mm
04:10 PM 44.0°F6.7°C 41.2°F5.1°C 90% 2.0 mph NNW3.2 kmh NNW 8.0 mph12.9 kmh 30.33 in1027.1 mb 0.03 in0.8 mm 0.12 in3.0 mm 0.04 in1.0 mm
04:05 PM 44.4°F6.9°C 41.6°F5.3°C 90% 4.0 mph NNE6.4 kmh NNE 11.0 mph17.7 kmh 30.33 in1027.1 mb 0.02 in0.5 mm 0.00 in0.0 mm 0.03 in0.8 mm
04:00 PM 44.7°F7.1°C 41.9°F5.5°C 90% 5.0 mph N8.0 kmh N 6.0 mph9.7 kmh 30.32 in1026.8 mb 0.02 in0.5 mm 0.00 in0.0 mm 0.03 in0.8 mm
03:55 PM 44.8°F7.1°C 41.7°F5.4°C 89% 6.0 mph N9.7 kmh N 7.0 mph11.3 kmh 30.32 in1026.8 mb 0.02 in0.5 mm 0.00 in0.0 mm 0.03 in0.8 mm
03:50 PM 45.0°F7.2°C 41.9°F5.5°C 89% Calm Calm -- 30.31 in1026.4 mb 0.02 in0.5 mm 0.00 in0.0 mm 0.02 in0.5 mm
03:45 PM 45.2°F7.3°C 42.1°F5.6°C 89% Calm Calm -- 30.31 in1026.4 mb 0.02 in0.5 mm 0.12 in3.0 mm 0.02 in0.5 mm
03:40 PM 45.3°F7.4°C 41.9°F5.5°C 88% Calm Calm 5.0 mph8.0 kmh 30.31 in1026.4 mb 0.01 in0.3 mm 0.00 in0.0 mm 0.02 in0.5 mm
03:35 PM 45.4°F7.4°C 42.0°F5.6°C 88% Calm Calm 6.0 mph9.7 kmh 30.31 in1026.4 mb 0.01 in0.3 mm 0.00 in0.0 mm 0.02 in0.5 mm
03:30 PM 45.5°F7.5°C 42.1°F5.6°C 88% 2.0 mph N3.2 kmh N 3.0 mph4.8 kmh 30.31 in1026.4 mb 0.01 in0.3 mm 0.00 in0.0 mm 0.02 in0.5 mm
03:25 PM 45.7°F7.6°C 42.3°F5.7°C 88% Calm Calm 8.0 mph12.9 kmh 30.30 in1026.1 mb 0.01 in0.3 mm 0.00 in0.0 mm 0.02 in0.5 mm
03:20 PM 45.8°F7.7°C 42.1°F5.6°C 87% 1.0 mph N1.6 kmh N 7.0 mph11.3 kmh 30.30 in1026.1 mb 0.01 in0.3 mm 0.12 in3.0 mm 0.02 in0.5 mm
03:15 PM 45.8°F7.7°C 42.1°F5.6°C 87% 5.0 mph N8.0 kmh N 9.0 mph14.5 kmh 30.30 in1026.1 mb 0.00 in0.0 mm 0.00 in0.0 mm 0.01 in0.3 mm
03:10 PM 46.0°F7.8°C 42.0°F5.6°C 86% 6.0 mph NNW9.7 kmh NNW 8.0 mph12.9 kmh 30.30 in1026.1 mb 0.00 in0.0 mm 0.00 in0.0 mm 0.01 in0.3 mm
03:05 PM 46.0°F7.8°C 42.3°F5.7°C 87% 6.0 mph NNW9.7 kmh NNW 9.0 mph14.5 kmh 30.29 in1025.7 mb 0.00 in0.0 mm 0.00 in0.0 mm 0.01 in0.3 mm
03:00 PM 46.0°F7.8°C 42.3°F5.7°C 87% 2.0 mph NW3.2 kmh NW 8.0 mph12.9 kmh 30.29 in1025.7 mb 0.00 in0.0 mm 0.00 in0.0 mm 0.01 in0.3 mm
02:55 PM 46.1°F7.8°C 42.7°F5.9°C 88% 1.0 mph W1.6 kmh W 8.0 mph12.9 kmh 30.29 in1025.7 mb 0.00 in0.0 mm 0.00 in0.0 mm 0.01 in0.3 mm
02:50 PM 46.1°F7.8°C 42.7°F5.9°C 88% 4.0 mph NW6.4 kmh NW 5.0 mph8.0 kmh 30.29 in1025.7 mb 0.00 in0.0 mm 0.00 in0.0 mm 0.01 in0.3 mm
02:45 PM 46.1°F7.8°C 42.7°F5.9°C 88% Calm Calm 4.0 mph6.4 kmh 30.29 in1025.7 mb 0.00 in0.0 mm 0.00 in0.0 mm 0.01 in0.3 mm
02:40 PM 46.1°F7.8°C 43.0°F6.1°C 89% 1.0 mph WNW1.6 kmh WNW 7.0 mph11.3 kmh 30.29 in1025.7 mb 0.00 in0.0 mm 0.00 in0.0 mm 0.01 in0.3 mm
02:35 PM 46.1°F7.8°C 43.0°F6.1°C 89% 3.0 mph W4.8 kmh W 6.0 mph9.7 kmh 30.29 in1025.7 mb 0.00 in0.0 mm 0.00 in0.0 mm 0.01 in0.3 mm
02:30 PM 46.1°F7.8°C 43.0°F6.1°C 89% 4.0 mph NW6.4 kmh NW 8.0 mph12.9 kmh 30.28 in1025.4 mb 0.00 in0.0 mm 0.00 in0.0 mm 0.01 in0.3 mm
02:25 PM 46.1°F7.8°C 42.7°F5.9°C 88% 7.0 mph WNW11.3 kmh WNW 8.0 mph12.9 kmh 30.28 in1025.4 mb 0.00 in0.0 mm 0.00 in0.0 mm 0.01 in0.3 mm
02:20 PM 46.1°F7.8°C 42.7°F5.9°C 88% 5.0 mph W8.0 kmh W 8.0 mph12.9 kmh 30.28 in1025.4 mb 0.00 in0.0 mm 0.00 in0.0 mm 0.01 in0.3 mm
02:15 PM 46.1°F7.8°C 43.0°F6.1°C 89% 5.0 mph WNW8.0 kmh WNW 8.0 mph12.9 kmh 30.28 in1025.4 mb 0.00 in0.0 mm 0.00 in0.0 mm 0.01 in0.3 mm
02:10 PM 45.9°F7.7°C 42.8°F6.0°C 89% 2.0 mph WNW3.2 kmh WNW 7.0 mph11.3 kmh 30.27 in1025.1 mb 0.00 in0.0 mm 0.00 in0.0 mm 0.01 in0.3 mm
02:05 PM 45.8°F7.7°C 43.0°F6.1°C 90% 4.0 mph WNW6.4 kmh WNW 8.0 mph12.9 kmh 30.28 in1025.4 mb 0.00 in0.0 mm 0.00 in0.0 mm 0.01 in0.3 mm
02:00 PM 45.6°F7.6°C 42.8°F6.0°C 90% 4.0 mph WNW6.4 kmh WNW 7.0 mph11.3 kmh 30.28 in1025.4 mb 0.00 in0.0 mm 0.00 in0.0 mm 0.01 in0.3 mm
01:55 PM 45.6°F7.6°C 43.1°F6.2°C 91% 5.0 mph WNW8.0 kmh WNW 7.0 mph11.3 kmh 30.28 in1025.4 mb 0.00 in0.0 mm 0.00 in0.0 mm 0.01 in0.3 mm
01:50 PM 45.6°F7.6°C 43.1°F6.2°C 91% 3.0 mph WNW4.8 kmh WNW 9.0 mph14.5 kmh 30.27 in1025.1 mb 0.00 in0.0 mm 0.00 in0.0 mm 0.01 in0.3 mm
01:45 PM 45.5°F7.5°C 43.0°F6.1°C 91% 5.0 mph W8.0 kmh W 10.0 mph16.1 kmh 30.27 in1025.1 mb 0.00 in0.0 mm 0.00 in0.0 mm 0.01 in0.3 mm
01:40 PM 45.6°F7.6°C 43.1°F6.2°C 91% 4.0 mph WNW6.4 kmh WNW 11.0 mph17.7 kmh 30.27 in1025.1 mb 0.00 in0.0 mm 0.00 in0.0 mm 0.01 in0.3 mm
01:35 PM 45.8°F7.7°C 43.3°F6.3°C 91% 5.0 mph W8.0 kmh W 11.0 mph17.7 kmh 30.27 in1025.1 mb 0.00 in0.0 mm 0.00 in0.0 mm 0.01 in0.3 mm
01:30 PM 45.8°F7.7°C 43.0°F6.1°C 90% 5.0 mph W8.0 kmh W 11.0 mph17.7 kmh 30.28 in1025.4 mb 0.00 in0.0 mm 0.00 in0.0 mm 0.01 in0.3 mm
01:25 PM 46.2°F7.9°C 43.1°F6.2°C 89% 8.0 mph NW12.9 kmh NW 11.0 mph17.7 kmh 30.27 in1025.1 mb 0.00 in0.0 mm 0.00 in0.0 mm 0.01 in0.3 mm
01:20 PM 46.7°F8.2°C 43.6°F6.4°C 89% 7.0 mph NW11.3 kmh NW 7.0 mph11.3 kmh 30.27 in1025.1 mb 0.00 in0.0 mm 0.00 in0.0 mm 0.01 in0.3 mm
01:15 PM 47.0°F8.3°C 43.3°F6.3°C 87% 4.0 mph NW6.4 kmh NW 9.0 mph14.5 kmh 30.27 in1025.1 mb 0.00 in0.0 mm 0.00 in0.0 mm 0.01 in0.3 mm
01:10 PM 47.2°F8.4°C 43.8°F6.6°C 88% 4.0 mph WNW6.4 kmh WNW 9.0 mph14.5 kmh 30.27 in1025.1 mb 0.00 in0.0 mm 0.00 in0.0 mm 0.01 in0.3 mm
01:05 PM 47.4°F8.6°C 44.0°F6.7°C 88% 5.0 mph W8.0 kmh W 9.0 mph14.5 kmh 30.27 in1025.1 mb 0.00 in0.0 mm 0.00 in0.0 mm 0.01 in0.3 mm
01:00 PM 47.4°F8.6°C 44.0°F6.7°C 88% 1.0 mph WSW1.6 kmh WSW 7.0 mph11.3 kmh 30.27 in1025.1 mb 0.00 in0.0 mm 0.00 in0.0 mm 0.01 in0.3 mm
12:55 PM 47.5°F8.6°C 44.1°F6.7°C 88% 2.0 mph WSW3.2 kmh WSW 9.0 mph14.5 kmh 30.27 in1025.1 mb 0.00 in0.0 mm 0.00 in0.0 mm 0.01 in0.3 mm
12:50 PM 47.5°F8.6°C 44.1°F6.7°C 88% 6.0 mph WNW9.7 kmh WNW 9.0 mph14.5 kmh 30.27 in1025.1 mb 0.00 in0.0 mm 0.00 in0.0 mm 0.01 in0.3 mm
12:45 PM 47.4°F8.6°C 43.7°F6.5°C 87% 5.0 mph W8.0 kmh W 8.0 mph12.9 kmh 30.27 in1025.1 mb 0.00 in0.0 mm 0.00 in0.0 mm 0.01 in0.3 mm
12:40 PM 47.5°F8.6°C 44.4°F6.9°C 89% 4.0 mph W6.4 kmh W 9.0 mph14.5 kmh 30.27 in1025.1 mb 0.00 in0.0 mm 0.00 in0.0 mm 0.01 in0.3 mm
12:35 PM 47.3°F8.5°C 44.5°F6.9°C 90% 6.0 mph W9.7 kmh W 6.0 mph9.7 kmh 30.27 in1025.1 mb 0.00 in0.0 mm 0.00 in0.0 mm 0.01 in0.3 mm
12:30 PM 47.2°F8.4°C 44.4°F6.9°C 90% 5.0 mph WSW8.0 kmh WSW 7.0 mph11.3 kmh 30.27 in1025.1 mb 0.00 in0.0 mm 0.00 in0.0 mm 0.01 in0.3 mm
12:25 PM 47.1°F8.4°C 44.6°F7.0°C 91% 4.0 mph 6.4 kmh 8.0 mph12.9 kmh 30.27 in1025.1 mb 0.00 in0.0 mm 0.00 in0.0 mm 0.01 in0.3 mm
12:20 PM 46.9°F8.3°C 44.6°F7.0°C 92% 7.0 mph WSW11.3 kmh WSW 7.0 mph11.3 kmh 30.27 in1025.1 mb 0.00 in0.0 mm 0.00 in0.0 mm 0.01 in0.3 mm
12:15 PM 46.6°F8.1°C 44.4°F6.9°C 92% 6.0 mph W9.7 kmh W 9.0 mph14.5 kmh 30.27 in1025.1 mb 0.00 in0.0 mm 0.00 in0.0 mm 0.01 in0.3 mm
12:10 PM 46.4°F8.0°C 44.2°F6.8°C 92% 6.0 mph WSW9.7 kmh WSW 8.0 mph12.9 kmh 30.27 in1025.1 mb 0.00 in0.0 mm 0.00 in0.0 mm 0.01 in0.3 mm
12:05 PM 46.4°F8.0°C 44.2°F6.8°C 92% 6.0 mph WSW9.7 kmh WSW 9.0 mph14.5 kmh 30.27 in1025.1 mb 0.00 in0.0 mm 0.00 in0.0 mm 0.01 in0.3 mm
12:00 PM 46.5°F8.1°C 44.5°F6.9°C 93% 3.0 mph WSW4.8 kmh WSW 8.0 mph12.9 kmh 30.27 in1025.1 mb 0.00 in0.0 mm 0.00 in0.0 mm 0.01 in0.3 mm
11:55 AM 46.5°F8.1°C 44.5°F6.9°C 93% 4.0 mph SW6.4 kmh SW 6.0 mph9.7 kmh 30.27 in1025.1 mb 0.00 in0.0 mm 0.00 in0.0 mm 0.01 in0.3 mm
11:50 AM 46.5°F8.1°C 44.5°F6.9°C 93% 4.0 mph WSW6.4 kmh WSW 8.0 mph12.9 kmh 30.27 in1025.1 mb 0.00 in0.0 mm 0.00 in0.0 mm 0.01 in0.3 mm
11:45 AM 46.4°F8.0°C 44.4°F6.9°C 93% 3.0 mph WSW4.8 kmh WSW 5.0 mph8.0 kmh 30.27 in1025.1 mb 0.00 in0.0 mm 0.00 in0.0 mm 0.01 in0.3 mm
11:40 AM 46.3°F7.9°C 44.3°F6.8°C 93% 1.0 mph W1.6 kmh W 7.0 mph11.3 kmh 30.27 in1025.1 mb 0.00 in0.0 mm 0.00 in0.0 mm 0.01 in0.3 mm
11:35 AM 46.3°F7.9°C 44.6°F7.0°C 94% 4.0 mph WSW6.4 kmh WSW 6.0 mph9.7 kmh 30.27 in1025.1 mb 0.00 in0.0 mm 0.00 in0.0 mm 0.01 in0.3 mm
11:30 AM 46.1°F7.8°C 44.4°F6.9°C 94% 5.0 mph W8.0 kmh W 9.0 mph14.5 kmh 30.27 in1025.1 mb 0.00 in0.0 mm 0.00 in0.0 mm 0.01 in0.3 mm
11:25 AM 45.9°F7.7°C 44.2°F6.8°C 94% 3.0 mph WNW4.8 kmh WNW 7.0 mph11.3 kmh 30.27 in1025.1 mb 0.00 in0.0 mm 0.00 in0.0 mm 0.01 in0.3 mm
11:20 AM 45.7°F7.6°C 44.0°F6.7°C 94% 6.0 mph W9.7 kmh W 9.0 mph14.5 kmh 30.27 in1025.1 mb 0.00 in0.0 mm 0.00 in0.0 mm 0.01 in0.3 mm
11:15 AM 45.6°F7.6°C 44.2°F6.8°C 95% 5.0 mph WSW8.0 kmh WSW 9.0 mph14.5 kmh 30.27 in1025.1 mb 0.00 in0.0 mm 0.00 in0.0 mm 0.01 in0.3 mm
11:10 AM 45.4°F7.4°C 44.0°F6.7°C 95% 5.0 mph W8.0 kmh W 10.0 mph16.1 kmh 30.27 in1025.1 mb 0.00 in0.0 mm 0.00 in0.0 mm 0.01 in0.3 mm
11:05 AM 45.4°F7.4°C 44.0°F6.7°C 95% 2.0 mph W3.2 kmh W 10.0 mph16.1 kmh 30.27 in1025.1 mb 0.00 in0.0 mm 0.00 in0.0 mm 0.01 in0.3 mm
11:00 AM 45.3°F7.4°C 43.9°F6.6°C 95% 3.0 mph W4.8 kmh W 10.0 mph16.1 kmh 30.27 in1025.1 mb 0.00 in0.0 mm 0.00 in0.0 mm 0.01 in0.3 mm
10:55 AM 45.3°F7.4°C 43.9°F6.6°C 95% 6.0 mph WSW9.7 kmh WSW 10.0 mph16.1 kmh 30.27 in1025.1 mb 0.00 in0.0 mm 0.00 in0.0 mm 0.01 in0.3 mm
10:50 AM 45.3°F7.4°C 44.2°F6.8°C 96% 7.0 mph W11.3 kmh W 10.0 mph16.1 kmh 30.27 in1025.1 mb 0.00 in0.0 mm 0.00 in0.0 mm 0.01 in0.3 mm
10:45 AM 45.2°F7.3°C 44.1°F6.7°C 96% 9.0 mph WSW14.5 kmh WSW 11.0 mph17.7 kmh 30.27 in1025.1 mb 0.00 in0.0 mm 0.00 in0.0 mm 0.01 in0.3 mm
10:40 AM 45.0°F7.2°C 43.9°F6.6°C 96% 6.0 mph WSW9.7 kmh WSW 11.0 mph17.7 kmh 30.27 in1025.1 mb 0.00 in0.0 mm 0.00 in0.0 mm 0.01 in0.3 mm
10:35 AM 44.9°F7.2°C 43.8°F6.6°C 96% 6.0 mph WNW9.7 kmh WNW 11.0 mph17.7 kmh 30.27 in1025.1 mb 0.00 in0.0 mm 0.00 in0.0 mm 0.01 in0.3 mm
10:30 AM 44.7°F7.1°C 43.6°F6.4°C 96% 4.0 mph W6.4 kmh W 10.0 mph16.1 kmh 30.26 in1024.7 mb 0.00 in0.0 mm 0.00 in0.0 mm 0.01 in0.3 mm
10:25 AM 44.6°F7.0°C 43.5°F6.4°C 96% 10.0 mph W16.1 kmh W 11.0 mph17.7 kmh 30.26 in1024.7 mb 0.00 in0.0 mm 0.00 in0.0 mm 0.01 in0.3 mm
10:20 AM 44.5°F6.9°C 43.4°F6.3°C 96% 6.0 mph WNW9.7 kmh WNW 10.0 mph16.1 kmh 30.26 in1024.7 mb 0.00 in0.0 mm 0.00 in0.0 mm 0.01 in0.3 mm
10:15 AM 44.5°F6.9°C 43.4°F6.3°C 96% 10.0 mph W16.1 kmh W 10.0 mph16.1 kmh 30.26 in1024.7 mb 0.00 in0.0 mm 0.00 in0.0 mm 0.01 in0.3 mm
10:10 AM 44.3°F6.8°C 43.2°F6.2°C 96% 7.0 mph W11.3 kmh W 8.0 mph12.9 kmh 30.26 in1024.7 mb 0.00 in0.0 mm 0.00 in0.0 mm 0.01 in0.3 mm
10:05 AM 44.2°F6.8°C 43.1°F6.2°C 96% 7.0 mph W11.3 kmh W 8.0 mph12.9 kmh 30.26 in1024.7 mb 0.00 in0.0 mm 0.00 in0.0 mm 0.01 in0.3 mm
10:00 AM 44.1°F6.7°C 43.0°F6.1°C 96% 4.0 mph W6.4 kmh W 11.0 mph17.7 kmh 30.25 in1024.4 mb 0.01 in0.3 mm 0.00 in0.0 mm 0.01 in0.3 mm
09:55 AM 44.1°F6.7°C 43.0°F6.1°C 96% 6.0 mph W9.7 kmh W 11.0 mph17.7 kmh 30.25 in1024.4 mb 0.01 in0.3 mm 0.00 in0.0 mm 0.01 in0.3 mm
09:50 AM 44.1°F6.7°C 43.0°F6.1°C 96% 7.0 mph W11.3 kmh W 11.0 mph17.7 kmh 30.25 in1024.4 mb 0.01 in0.3 mm 0.00 in0.0 mm 0.01 in0.3 mm
09:45 AM 44.1°F6.7°C 43.0°F6.1°C 96% 8.0 mph W12.9 kmh W 11.0 mph17.7 kmh 30.25 in1024.4 mb 0.01 in0.3 mm 0.00 in0.0 mm 0.01 in0.3 mm
09:40 AM 44.0°F6.7°C 42.9°F6.1°C 96% 6.0 mph WNW9.7 kmh WNW 10.0 mph16.1 kmh 30.24 in1024.0 mb 0.01 in0.3 mm 0.00 in0.0 mm 0.01 in0.3 mm
09:35 AM 44.0°F6.7°C 42.9°F6.1°C 96% 6.0 mph WNW9.7 kmh WNW 10.0 mph16.1 kmh 30.24 in1024.0 mb 0.01 in0.3 mm 0.00 in0.0 mm 0.01 in0.3 mm
09:30 AM 44.0°F6.7°C 42.9°F6.1°C 96% 6.0 mph WNW9.7 kmh WNW 9.0 mph14.5 kmh 30.24 in1024.0 mb 0.01 in0.3 mm 0.00 in0.0 mm 0.01 in0.3 mm
09:25 AM 43.9°F6.6°C 42.8°F6.0°C 96% 7.0 mph WSW11.3 kmh WSW 10.0 mph16.1 kmh 30.24 in1024.0 mb 0.01 in0.3 mm 0.00 in0.0 mm 0.01 in0.3 mm
09:20 AM 43.8°F6.6°C 42.7°F5.9°C 96% 7.0 mph 11.3 kmh 9.0 mph14.5 kmh 30.23 in1023.7 mb 0.01 in0.3 mm 0.00 in0.0 mm 0.01 in0.3 mm
09:15 AM 43.8°F6.6°C 42.7°F5.9°C 96% 8.0 mph W12.9 kmh W 9.0 mph14.5 kmh 30.23 in1023.7 mb 0.01 in0.3 mm 0.00 in0.0 mm 0.01 in0.3 mm
09:10 AM 43.8°F6.6°C 42.7°F5.9°C 96% 5.0 mph W8.0 kmh W 9.0 mph14.5 kmh 30.23 in1023.7 mb 0.01 in0.3 mm 0.12 in3.0 mm 0.01 in0.3 mm
09:05 AM 43.8°F6.6°C 42.7°F5.9°C 96% 4.0 mph WNW6.4 kmh WNW 8.0 mph12.9 kmh 30.22 in1023.4 mb 0.00 in0.0 mm 0.00 in0.0 mm 0.01 in0.3 mm
09:00 AM 43.8°F6.6°C 42.7°F5.9°C 96% 7.0 mph W11.3 kmh W 8.0 mph12.9 kmh 30.22 in1023.4 mb 0.00 in0.0 mm 0.00 in0.0 mm 0.01 in0.3 mm
08:55 AM 43.8°F6.6°C 42.7°F5.9°C 96% 6.0 mph W9.7 kmh W 7.0 mph11.3 kmh 30.22 in1023.4 mb 0.00 in0.0 mm 0.00 in0.0 mm 0.01 in0.3 mm
08:50 AM 43.8°F6.6°C 42.7°F5.9°C 96% 4.0 mph WNW6.4 kmh WNW 8.0 mph12.9 kmh 30.22 in1023.4 mb 0.00 in0.0 mm 0.00 in0.0 mm 0.01 in0.3 mm
08:45 AM 43.8°F6.6°C 42.7°F5.9°C 96% 4.0 mph WNW6.4 kmh WNW 8.0 mph12.9 kmh 30.22 in1023.4 mb 0.00 in0.0 mm 0.00 in0.0 mm 0.01 in0.3 mm
08:40 AM 43.7°F6.5°C 42.6°F5.9°C 96% 3.0 mph W4.8 kmh W 7.0 mph11.3 kmh 30.21 in1023.0 mb 0.00 in0.0 mm 0.00 in0.0 mm 0.01 in0.3 mm
08:35 AM 43.8°F6.6°C 42.7°F5.9°C 96% 4.0 mph W6.4 kmh W 6.0 mph9.7 kmh 30.21 in1023.0 mb 0.00 in0.0 mm 0.00 in0.0 mm 0.01 in0.3 mm
08:30 AM 43.7°F6.5°C 42.6°F5.9°C 96% 3.0 mph WNW4.8 kmh WNW 7.0 mph11.3 kmh 30.21 in1023.0 mb 0.00 in0.0 mm 0.00 in0.0 mm 0.01 in0.3 mm
08:25 AM 43.7°F6.5°C 42.6°F5.9°C 96% 3.0 mph NW4.8 kmh NW 7.0 mph11.3 kmh 30.21 in1023.0 mb 0.00 in0.0 mm 0.00 in0.0 mm 0.01 in0.3 mm
08:20 AM 43.7°F6.5°C 42.3°F5.7°C 95% 6.0 mph W9.7 kmh W 7.0 mph11.3 kmh 30.21 in1023.0 mb 0.00 in0.0 mm 0.00 in0.0 mm 0.01 in0.3 mm
08:15 AM 43.7°F6.5°C 42.3°F5.7°C 95% 3.0 mph WNW4.8 kmh WNW 6.0 mph9.7 kmh 30.20 in1022.7 mb 0.00 in0.0 mm 0.00 in0.0 mm 0.01 in0.3 mm
08:10 AM 43.7°F6.5°C 42.3°F5.7°C 95% 5.0 mph W8.0 kmh W 6.0 mph9.7 kmh 30.20 in1022.7 mb 0.00 in0.0 mm 0.00 in0.0 mm 0.01 in0.3 mm
08:05 AM 43.7°F6.5°C 42.3°F5.7°C 95% 5.0 mph W8.0 kmh W 7.0 mph11.3 kmh 30.20 in1022.7 mb 0.00 in0.0 mm 0.00 in0.0 mm 0.01 in0.3 mm
08:00 AM 43.7°F6.5°C 42.3°F5.7°C 95% 4.0 mph WNW6.4 kmh WNW 6.0 mph9.7 kmh 30.20 in1022.7 mb 0.00 in0.0 mm 0.00 in0.0 mm 0.01 in0.3 mm
07:55 AM 43.7°F6.5°C 42.3°F5.7°C 95% 5.0 mph WNW8.0 kmh WNW 6.0 mph9.7 kmh 30.20 in1022.7 mb 0.00 in0.0 mm 0.00 in0.0 mm 0.01 in0.3 mm
07:50 AM 43.8°F6.6°C 42.4°F5.8°C 95% 5.0 mph W8.0 kmh W 7.0 mph11.3 kmh 30.20 in1022.7 mb 0.00 in0.0 mm 0.00 in0.0 mm 0.01 in0.3 mm
07:45 AM 43.8°F6.6°C 42.1°F5.6°C 94% 3.0 mph WNW4.8 kmh WNW 7.0 mph11.3 kmh 30.20 in1022.7 mb 0.00 in0.0 mm 0.00 in0.0 mm 0.01 in0.3 mm
07:40 AM 43.9°F6.6°C 42.2°F5.7°C 94% 4.0 mph W6.4 kmh W 6.0 mph9.7 kmh 30.19 in1022.4 mb 0.00 in0.0 mm 0.00 in0.0 mm 0.01 in0.3 mm
07:35 AM 44.0°F6.7°C 42.3°F5.7°C 94% 3.0 mph WNW4.8 kmh WNW 8.0 mph12.9 kmh 30.19 in1022.4 mb 0.00 in0.0 mm 0.00 in0.0 mm 0.01 in0.3 mm
07:30 AM 44.1°F6.7°C 42.2°F5.7°C 93% 4.0 mph WNW6.4 kmh WNW 5.0 mph8.0 kmh 30.19 in1022.4 mb 0.00 in0.0 mm 0.00 in0.0 mm 0.01 in0.3 mm
07:25 AM 44.3°F6.8°C 42.4°F5.8°C 93% Calm Calm 10.0 mph16.1 kmh 30.19 in1022.4 mb 0.00 in0.0 mm 0.00 in0.0 mm 0.01 in0.3 mm
07:20 AM 44.6°F7.0°C 42.4°F5.8°C 92% 6.0 mph NW9.7 kmh NW 9.0 mph14.5 kmh 30.19 in1022.4 mb 0.00 in0.0 mm 0.00 in0.0 mm 0.01 in0.3 mm
07:15 AM 44.8°F7.1°C 42.6°F5.9°C 92% 5.0 mph NNW8.0 kmh NNW 9.0 mph14.5 kmh 30.19 in1022.4 mb 0.00 in0.0 mm 0.00 in0.0 mm 0.01 in0.3 mm
07:10 AM 44.9°F7.2°C 42.4°F5.8°C 91% 4.0 mph NNW6.4 kmh NNW 6.0 mph9.7 kmh 30.19 in1022.4 mb 0.00 in0.0 mm 0.00 in0.0 mm 0.01 in0.3 mm
07:05 AM 45.0°F7.2°C 42.8°F6.0°C 92% 3.0 mph NW4.8 kmh NW 5.0 mph8.0 kmh 30.19 in1022.4 mb 0.00 in0.0 mm 0.00 in0.0 mm 0.01 in0.3 mm
07:00 AM 44.9°F7.2°C 42.7°F5.9°C 92% Calm Calm 4.0 mph6.4 kmh 30.18 in1022.0 mb 0.00 in0.0 mm 0.00 in0.0 mm 0.01 in0.3 mm
06:55 AM 44.9°F7.2°C 42.7°F5.9°C 92% Calm Calm 1.0 mph1.6 kmh 30.18 in1022.0 mb 0.00 in0.0 mm 0.00 in0.0 mm 0.01 in0.3 mm
06:50 AM 44.9°F7.2°C 42.7°F5.9°C 92% Calm Calm 4.0 mph6.4 kmh 30.18 in1022.0 mb 0.00 in0.0 mm 0.00 in0.0 mm 0.01 in0.3 mm
06:45 AM 44.9°F7.2°C 42.7°F5.9°C 92% Calm Calm 5.0 mph8.0 kmh 30.18 in1022.0 mb 0.00 in0.0 mm 0.00 in0.0 mm 0.01 in0.3 mm
06:40 AM 44.8°F7.1°C 42.6°F5.9°C 92% Calm Calm 5.0 mph8.0 kmh 30.18 in1022.0 mb 0.00 in0.0 mm 0.00 in0.0 mm 0.01 in0.3 mm
06:35 AM 44.8°F7.1°C 42.9°F6.1°C 93% Calm Calm 5.0 mph8.0 kmh 30.18 in1022.0 mb 0.00 in0.0 mm 0.00 in0.0 mm 0.01 in0.3 mm
06:30 AM 44.8°F7.1°C 42.9°F6.1°C 93% Calm Calm 6.0 mph9.7 kmh 30.18 in1022.0 mb 0.00 in0.0 mm 0.00 in0.0 mm 0.01 in0.3 mm
06:25 AM 44.9°F7.2°C 42.9°F6.1°C 93% 4.0 mph WNW6.4 kmh WNW 8.0 mph12.9 kmh 30.18 in1022.0 mb 0.00 in0.0 mm 0.00 in0.0 mm 0.01 in0.3 mm
06:20 AM 44.7°F7.1°C 42.8°F6.0°C 93% 4.0 mph NW6.4 kmh NW 6.0 mph9.7 kmh 30.18 in1022.0 mb 0.00 in0.0 mm 0.00 in0.0 mm 0.01 in0.3 mm
06:15 AM 44.7°F7.1°C 42.8°F6.0°C 93% Calm Calm 7.0 mph11.3 kmh 30.18 in1022.0 mb 0.00 in0.0 mm 0.00 in0.0 mm 0.01 in0.3 mm
06:10 AM 44.4°F6.9°C 42.7°F5.9°C 94% 6.0 mph WNW9.7 kmh WNW 5.0 mph8.0 kmh 30.18 in1022.0 mb 0.00 in0.0 mm 0.00 in0.0 mm 0.01 in0.3 mm
06:05 AM 44.1°F6.7°C 42.7°F5.9°C 95% 3.0 mph WNW4.8 kmh WNW 5.0 mph8.0 kmh 30.17 in1021.7 mb 0.00 in0.0 mm 0.00 in0.0 mm 0.01 in0.3 mm
06:00 AM 43.9°F6.6°C 42.5°F5.8°C 95% Calm Calm 3.0 mph4.8 kmh 30.18 in1022.0 mb 0.00 in0.0 mm 0.00 in0.0 mm 0.01 in0.3 mm
05:55 AM 43.7°F6.5°C 42.3°F5.7°C 95% Calm Calm 5.0 mph8.0 kmh 30.17 in1021.7 mb 0.00 in0.0 mm 0.00 in0.0 mm 0.01 in0.3 mm
05:50 AM 43.7°F6.5°C 42.3°F5.7°C 95% Calm Calm 3.0 mph4.8 kmh 30.17 in1021.7 mb 0.00 in0.0 mm 0.00 in0.0 mm 0.01 in0.3 mm
05:45 AM 43.6°F6.4°C 42.2°F5.7°C 95% 3.0 mph WSW4.8 kmh WSW -- 30.17 in1021.7 mb 0.00 in0.0 mm 0.00 in0.0 mm 0.01 in0.3 mm
05:40 AM 43.6°F6.4°C 42.2°F5.7°C 95% Calm Calm -- 30.17 in1021.7 mb 0.00 in0.0 mm 0.00 in0.0 mm 0.01 in0.3 mm
05:35 AM 43.6°F6.4°C 42.2°F5.7°C 95% Calm Calm 4.0 mph6.4 kmh 30.17 in1021.7 mb 0.00 in0.0 mm 0.00 in0.0 mm 0.01 in0.3 mm
05:30 AM 43.6°F6.4°C 42.2°F5.7°C 95% Calm Calm 3.0 mph4.8 kmh 30.17 in1021.7 mb 0.00 in0.0 mm 0.00 in0.0 mm 0.01 in0.3 mm
05:25 AM 43.6°F6.4°C 42.2°F5.7°C 95% Calm Calm 3.0 mph4.8 kmh 30.17 in1021.7 mb 0.00 in0.0 mm 0.00 in0.0 mm 0.01 in0.3 mm
05:20 AM 43.6°F6.4°C 42.2°F5.7°C 95% Calm Calm 4.0 mph6.4 kmh 30.17 in1021.7 mb 0.00 in0.0 mm 0.00 in0.0 mm 0.01 in0.3 mm
05:15 AM 43.6°F6.4°C 42.2°F5.7°C 95% Calm Calm 4.0 mph6.4 kmh 30.16 in1021.3 mb 0.00 in0.0 mm 0.00 in0.0 mm 0.01 in0.3 mm
05:10 AM 43.7°F6.5°C 42.3°F5.7°C 95% 2.0 mph W3.2 kmh W 4.0 mph6.4 kmh 30.17 in1021.7 mb 0.00 in0.0 mm 0.00 in0.0 mm 0.01 in0.3 mm
05:05 AM 43.8°F6.6°C 42.4°F5.8°C 95% Calm Calm 4.0 mph6.4 kmh 30.17 in1021.7 mb 0.00 in0.0 mm 0.00 in0.0 mm 0.01 in0.3 mm
05:00 AM 43.8°F6.6°C 42.4°F5.8°C 95% Calm Calm 4.0 mph6.4 kmh 30.16 in1021.3 mb 0.00 in0.0 mm 0.00 in0.0 mm 0.01 in0.3 mm
04:55 AM 43.8°F6.6°C 42.4°F5.8°C 95% 1.0 mph W1.6 kmh W 3.0 mph4.8 kmh 30.16 in1021.3 mb 0.00 in0.0 mm 0.00 in0.0 mm 0.01 in0.3 mm
04:50 AM 43.6°F6.4°C 42.2°F5.7°C 95% Calm Calm 1.0 mph1.6 kmh 30.16 in1021.3 mb 0.00 in0.0 mm 0.00 in0.0 mm 0.01 in0.3 mm
04:45 AM 43.5°F6.4°C 42.1°F5.6°C 95% Calm Calm 3.0 mph4.8 kmh 30.16 in1021.3 mb 0.00 in0.0 mm 0.00 in0.0 mm 0.01 in0.3 mm
04:40 AM 43.4°F6.3°C 42.0°F5.6°C 95% 3.0 mph WNW4.8 kmh WNW -- 30.16 in1021.3 mb 0.00 in0.0 mm 0.00 in0.0 mm 0.01 in0.3 mm
04:35 AM 43.4°F6.3°C 42.0°F5.6°C 95% Calm Calm -- 30.16 in1021.3 mb 0.00 in0.0 mm 0.00 in0.0 mm 0.01 in0.3 mm
04:30 AM 43.5°F6.4°C 42.1°F5.6°C 95% Calm Calm -- 30.16 in1021.3 mb 0.00 in0.0 mm 0.00 in0.0 mm 0.01 in0.3 mm
04:25 AM 43.6°F6.4°C 42.2°F5.7°C 95% Calm Calm -- 30.16 in1021.3 mb 0.00 in0.0 mm 0.00 in0.0 mm 0.01 in0.3 mm
04:20 AM 43.6°F6.4°C 42.2°F5.7°C 95% Calm Calm -- 30.16 in1021.3 mb 0.00 in0.0 mm 0.00 in0.0 mm 0.01 in0.3 mm
04:15 AM 43.5°F6.4°C 42.1°F5.6°C 95% Calm Calm -- 30.16 in1021.3 mb 0.00 in0.0 mm 0.00 in0.0 mm 0.01 in0.3 mm
04:10 AM 43.6°F6.4°C 42.2°F5.7°C 95% Calm Calm -- 30.16 in1021.3 mb 0.00 in0.0 mm 0.00 in0.0 mm 0.01 in0.3 mm
04:05 AM 43.5°F6.4°C 42.1°F5.6°C 95% Calm Calm -- 30.16 in1021.3 mb 0.00 in0.0 mm 0.00 in0.0 mm 0.01 in0.3 mm
04:00 AM 43.5°F6.4°C 42.1°F5.6°C 95% Calm Calm -- 30.16 in1021.3 mb 0.00 in0.0 mm 0.00 in0.0 mm 0.01 in0.3 mm
03:55 AM 43.6°F6.4°C 42.2°F5.7°C 95% Calm Calm -- 30.16 in1021.3 mb 0.00 in0.0 mm 0.00 in0.0 mm 0.01 in0.3 mm
03:50 AM 43.7°F6.5°C 42.3°F5.7°C 95% Calm Calm -- 30.16 in1021.3 mb 0.00 in0.0 mm 0.00 in0.0 mm 0.01 in0.3 mm
03:45 AM 43.7°F6.5°C 42.3°F5.7°C 95% Calm Calm -- 30.16 in1021.3 mb 0.00 in0.0 mm 0.00 in0.0 mm 0.01 in0.3 mm
03:40 AM 43.8°F6.6°C 42.4°F5.8°C 95% Calm Calm -- 30.16 in1021.3 mb 0.00 in0.0 mm 0.00 in0.0 mm 0.01 in0.3 mm
03:35 AM 43.8°F6.6°C 42.4°F5.8°C 95% Calm Calm -- 30.16 in1021.3 mb 0.00 in0.0 mm 0.00 in0.0 mm 0.01 in0.3 mm
03:30 AM 43.9°F6.6°C 42.5°F5.8°C 95% Calm Calm 4.0 mph6.4 kmh 30.16 in1021.3 mb 0.00 in0.0 mm 0.00 in0.0 mm 0.01 in0.3 mm
03:25 AM 43.8°F6.6°C 42.4°F5.8°C 95% Calm Calm -- 30.16 in1021.3 mb 0.00 in0.0 mm 0.00 in0.0 mm 0.01 in0.3 mm
03:20 AM 43.9°F6.6°C 42.5°F5.8°C 95% Calm Calm -- 30.16 in1021.3 mb 0.00 in0.0 mm 0.00 in0.0 mm 0.01 in0.3 mm
03:15 AM 43.9°F6.6°C 42.5°F5.8°C 95% Calm Calm -- 30.16 in1021.3 mb 0.00 in0.0 mm 0.00 in0.0 mm 0.01 in0.3 mm
03:10 AM 43.9°F6.6°C 42.8°F6.0°C 96% Calm Calm 3.0 mph4.8 kmh 30.16 in1021.3 mb 0.00 in0.0 mm 0.00 in0.0 mm 0.01 in0.3 mm
03:05 AM 43.9°F6.6°C 42.8°F6.0°C 96% Calm Calm 3.0 mph4.8 kmh 30.16 in1021.3 mb 0.00 in0.0 mm 0.00 in0.0 mm 0.01 in0.3 mm
03:00 AM 43.9°F6.6°C 42.8°F6.0°C 96% Calm Calm 4.0 mph6.4 kmh 30.16 in1021.3 mb 0.00 in0.0 mm 0.00 in0.0 mm 0.01 in0.3 mm
02:55 AM 44.0°F6.7°C 42.9°F6.1°C 96% Calm Calm 5.0 mph8.0 kmh 30.16 in1021.3 mb 0.00 in0.0 mm 0.00 in0.0 mm 0.01 in0.3 mm
02:50 AM 43.9°F6.6°C 42.8°F6.0°C 96% Calm Calm 5.0 mph8.0 kmh 30.16 in1021.3 mb 0.00 in0.0 mm 0.00 in0.0 mm 0.01 in0.3 mm
02:45 AM 43.8°F6.6°C 42.7°F5.9°C 96% Calm Calm -- 30.16 in1021.3 mb 0.00 in0.0 mm 0.00 in0.0 mm 0.01 in0.3 mm
02:40 AM 43.8°F6.6°C 42.7°F5.9°C 96% Calm Calm 3.0 mph4.8 kmh 30.16 in1021.3 mb 0.00 in0.0 mm 0.00 in0.0 mm 0.01 in0.3 mm
02:35 AM 43.7°F6.5°C 42.6°F5.9°C 96% Calm Calm 3.0 mph4.8 kmh 30.16 in1021.3 mb 0.00 in0.0 mm 0.00 in0.0 mm 0.01 in0.3 mm
02:30 AM 43.6°F6.4°C 42.5°F5.8°C 96% Calm Calm -- 30.16 in1021.3 mb 0.00 in0.0 mm 0.00 in0.0 mm 0.01 in0.3 mm
02:25 AM 43.6°F6.4°C 42.5°F5.8°C 96% Calm Calm -- 30.16 in1021.3 mb 0.00 in0.0 mm 0.00 in0.0 mm 0.01 in0.3 mm
02:20 AM 43.7°F6.5°C 42.6°F5.9°C 96% Calm Calm -- 30.16 in1021.3 mb 0.00 in0.0 mm 0.00 in0.0 mm 0.01 in0.3 mm
02:15 AM 43.8°F6.6°C 42.7°F5.9°C 96% Calm Calm -- 30.16 in1021.3 mb 0.00 in0.0 mm 0.00 in0.0 mm 0.01 in0.3 mm
02:10 AM 43.8°F6.6°C 42.7°F5.9°C 96% Calm Calm -- 30.16 in1021.3 mb 0.00 in0.0 mm 0.00 in0.0 mm 0.01 in0.3 mm
02:05 AM 43.9°F6.6°C 42.8°F6.0°C 96% Calm Calm -- 30.15 in1021.0 mb 0.00 in0.0 mm 0.00 in0.0 mm 0.01 in0.3 mm
02:00 AM 43.9°F6.6°C 42.8°F6.0°C 96% Calm Calm 4.0 mph6.4 kmh 30.15 in1021.0 mb 0.00 in0.0 mm 0.00 in0.0 mm 0.01 in0.3 mm
01:55 AM 44.0°F6.7°C 42.9°F6.1°C 96% Calm Calm 4.0 mph6.4 kmh 30.15 in1021.0 mb 0.00 in0.0 mm 0.00 in0.0 mm 0.01 in0.3 mm
01:50 AM 44.1°F6.7°C 43.0°F6.1°C 96% 3.0 mph WSW4.8 kmh WSW 4.0 mph6.4 kmh 30.15 in1021.0 mb 0.00 in0.0 mm 0.00 in0.0 mm 0.01 in0.3 mm
01:45 AM 44.1°F6.7°C 43.0°F6.1°C 96% Calm Calm 3.0 mph4.8 kmh 30.15 in1021.0 mb 0.00 in0.0 mm 0.00 in0.0 mm 0.01 in0.3 mm
01:40 AM 44.1°F6.7°C 43.0°F6.1°C 96% 3.0 mph 4.8 kmh 3.0 mph4.8 kmh 30.15 in1021.0 mb 0.00 in0.0 mm 0.00 in0.0 mm 0.01 in0.3 mm
01:35 AM 44.1°F6.7°C 43.0°F6.1°C 96% 1.0 mph WSW1.6 kmh WSW 3.0 mph4.8 kmh 30.15 in1021.0 mb 0.00 in0.0 mm 0.00 in0.0 mm 0.01 in0.3 mm
01:30 AM 44.1°F6.7°C 43.0°F6.1°C 96% 2.0 mph WSW3.2 kmh WSW 2.0 mph3.2 kmh 30.15 in1021.0 mb 0.00 in0.0 mm 0.00 in0.0 mm 0.01 in0.3 mm
01:25 AM 44.1°F6.7°C 43.0°F6.1°C 96% Calm Calm 3.0 mph4.8 kmh 30.15 in1021.0 mb 0.00 in0.0 mm 0.00 in0.0 mm 0.01 in0.3 mm
01:20 AM 44.1°F6.7°C 43.0°F6.1°C 96% 1.0 mph WSW1.6 kmh WSW 3.0 mph4.8 kmh 30.15 in1021.0 mb 0.00 in0.0 mm 0.00 in0.0 mm 0.01 in0.3 mm
01:15 AM 44.0°F6.7°C 42.9°F6.1°C 96% 2.0 mph WSW3.2 kmh WSW 2.0 mph3.2 kmh 30.15 in1021.0 mb 0.00 in0.0 mm 0.00 in0.0 mm 0.01 in0.3 mm
01:10 AM 44.1°F6.7°C 43.0°F6.1°C 96% Calm Calm 2.0 mph3.2 kmh 30.15 in1021.0 mb 0.00 in0.0 mm 0.00 in0.0 mm 0.01 in0.3 mm
01:05 AM 44.1°F6.7°C 43.0°F6.1°C 96% Calm Calm 1.0 mph1.6 kmh 30.15 in1021.0 mb 0.00 in0.0 mm 0.00 in0.0 mm 0.01 in0.3 mm
01:00 AM 44.1°F6.7°C 43.0°F6.1°C 96% Calm Calm -- 30.15 in1021.0 mb 0.00 in0.0 mm 0.00 in0.0 mm 0.01 in0.3 mm
12:55 AM 44.1°F6.7°C 43.0°F6.1°C 96% Calm Calm 1.0 mph1.6 kmh 30.15 in1021.0 mb 0.00 in0.0 mm 0.00 in0.0 mm 0.01 in0.3 mm
12:50 AM 44.0°F6.7°C 42.9°F6.1°C 96% Calm Calm 1.0 mph1.6 kmh 30.15 in1021.0 mb 0.00 in0.0 mm 0.00 in0.0 mm 0.01 in0.3 mm
12:45 AM 44.0°F6.7°C 42.9°F6.1°C 96% Calm Calm 2.0 mph3.2 kmh 30.15 in1021.0 mb 0.00 in0.0 mm 0.00 in0.0 mm 0.01 in0.3 mm
12:40 AM 43.9°F6.6°C 42.8°F6.0°C 96% Calm Calm 3.0 mph4.8 kmh 30.15 in1021.0 mb 0.00 in0.0 mm 0.00 in0.0 mm 0.01 in0.3 mm
12:35 AM 43.9°F6.6°C 42.8°F6.0°C 96% Calm Calm 4.0 mph6.4 kmh 30.15 in1021.0 mb 0.00 in0.0 mm 0.00 in0.0 mm 0.01 in0.3 mm
12:30 AM 43.9°F6.6°C 42.8°F6.0°C 96% 2.0 mph W3.2 kmh W 5.0 mph8.0 kmh 30.15 in1021.0 mb 0.00 in0.0 mm 0.00 in0.0 mm 0.01 in0.3 mm
12:25 AM 44.0°F6.7°C 42.9°F6.1°C 96% Calm Calm 4.0 mph6.4 kmh 30.15 in1021.0 mb 0.00 in0.0 mm 0.00 in0.0 mm 0.01 in0.3 mm
12:20 AM 44.0°F6.7°C 42.9°F6.1°C 96% 2.0 mph W3.2 kmh W 3.0 mph4.8 kmh 30.15 in1021.0 mb 0.00 in0.0 mm 0.00 in0.0 mm 0.01 in0.3 mm
12:15 AM 44.0°F6.7°C 42.9°F6.1°C 96% 2.0 mph WNW3.2 kmh WNW 4.0 mph6.4 kmh 30.15 in1021.0 mb 0.00 in0.0 mm 0.00 in0.0 mm 0.01 in0.3 mm
12:10 AM 44.0°F6.7°C 42.9°F6.1°C 96% 1.0 mph WNW1.6 kmh WNW 4.0 mph6.4 kmh 30.15 in1021.0 mb 0.00 in0.0 mm 0.00 in0.0 mm 0.01 in0.3 mm
12:05 AM 44.0°F6.7°C 42.9°F6.1°C 96% 3.0 mph WNW4.8 kmh WNW 2.0 mph3.2 kmh 30.15 in1021.0 mb 0.00 in0.0 mm 0.00 in0.0 mm 0.01 in0.3 mm
12:00 AM 44.0°F6.7°C 42.9°F6.1°C 96% 2.0 mph WNW3.2 kmh WNW 3.0 mph4.8 kmh 30.15 in1021.0 mb 0.01 in0.3 mm 0.00 in0.0 mm 0.11 in2.8 mm